Time;durP1;ratioP1;P1;durP2;ratioP2;P2;SDS_P1;SDS_P2;PMS_P1;PMS_P2;Temp;Humidity;BMP_temperature;BMP_pressure;BME280_temperature;BME280_humidity;BME280_pressure;Samples;Min_cycle;Max_cycle;Signal;HPM_P1;HPM_P2
2024/03/29 00:00:54;;;;;;;;;;;;;;;3.78;73.99;96877.63;6179649;23;19916;-89
2024/03/29 00:03:20;;;;;;;;;;;;;;;3.87;75.29;96879.63;6178950;23;19930;-90
2024/03/29 00:05:45;;;;;;;;;;;;;;;4.05;71.67;96874.78;6179057;23;20354;-89
2024/03/29 00:08:10;;;;;;;;;;;;;;;3.84;76.18;96883.09;6179620;23;19912;-90
2024/03/29 00:10:36;;;;;;;;;;;;;;;3.68;75.39;96880.00;6152203;23;19912;-88
2024/03/29 00:13:01;;;;;;;;;;;;;;;4.73;68.27;96879.88;6177952;23;19915;-89
2024/03/29 00:15:26;;;;;;;;;;;;;;;6.04;62.14;96849.84;6179937;23;19990;-89
2024/03/29 00:17:52;;;;;;;;;;;;;;;6.57;60.88;96862.13;6181457;23;20250;-88
2024/03/29 00:20:17;;;;;;;;;;;;;;;7.19;57.24;96839.09;6184033;23;19920;-90
2024/03/29 00:22:42;;;;;;;;;;;;;;;7.58;55.92;96827.13;6182584;23;19912;-89
2024/03/29 00:25:08;;;;;;;;;;;;;;;7.69;55.64;96819.25;6174021;23;19965;-91
2024/03/29 00:27:33;;;;;;;;;;;;;;;7.89;54.54;96812.38;6197259;23;19950;-90
2024/03/29 00:29:58;;;;;;;;;;;;;;;7.78;55.04;96807.84;6201971;23;19915;-89
2024/03/29 00:32:25;;;;;;;;;;;;;;;7.79;55.16;96799.88;6201741;23;19959;-89
2024/03/29 00:34:50;;;;;;;;;;;;;;;8.02;54.23;96797.44;6174472;23;19940;-90
2024/03/29 00:37:16;;;;;;;;;;;;;;;7.97;54.42;96796.50;6184794;23;19916;-89
2024/03/29 00:39:43;;;;;;;;;;;;;;;8.15;53.41;96780.72;6177374;23;19995;-89
2024/03/29 00:42:09;;;;;;;;;;;;;;;8.31;52.90;96771.06;6185143;23;19923;-89
2024/03/29 00:44:37;;;;;;;;;;;;;;;8.24;53.38;96756.00;6165936;23;20272;-89
2024/03/29 00:47:03;;;;;;;;;;;;;;;8.12;54.13;96756.78;6191806;23;19919;-89
2024/03/29 00:49:31;;;;;;;;;;;;;;;8.25;53.48;96748.91;6179308;23;19935;-90
2024/03/29 00:51:57;;;;;;;;;;;;;;;8.31;53.36;96736.53;6176747;23;20030;-91
2024/03/29 00:54:25;;;;;;;;;;;;;;;8.31;53.05;96757.78;6180369;23;19912;-90
2024/03/29 00:56:52;;;;;;;;;;;;;;;8.44;52.77;96753.47;6178288;23;20251;-91
2024/03/29 00:59:17;;;;;;;;;;;;;;;8.65;51.80;96758.00;6177608;23;19918;-91
2024/03/29 01:01:43;;;;;;;;;;;;;;;8.50;52.17;96752.63;6177276;23;19983;-90
2024/03/29 01:04:08;;;;;;;;;;;;;;;8.51;52.03;96746.41;6177047;23;19999;-90
2024/03/29 01:06:34;;;;;;;;;;;;;;;8.53;52.15;96752.63;6152218;23;19990;-90
2024/03/29 01:09:03;;;;;;;;;;;;;;;8.37;53.36;96744.56;6178564;23;19923;-90
2024/03/29 01:11:29;;;;;;;;;;;;;;;8.57;51.83;96727.84;6152270;23;19923;-90
2024/03/29 01:13:54;;;;;;;;;;;;;;;8.47;52.62;96724.25;6177511;23;20351;-89
2024/03/29 01:16:19;;;;;;;;;;;;;;;8.34;53.04;96755.16;6152639;23;20447;-90
2024/03/29 01:18:45;;;;;;;;;;;;;;;8.50;52.50;96756.16;6177526;23;20283;-90
2024/03/29 01:21:12;;;;;;;;;;;;;;;8.66;51.96;96747.38;6153237;23;19916;-91
2024/03/29 01:23:37;;;;;;;;;;;;;;;8.56;52.34;96734.91;6178552;23;19912;-91
2024/03/29 01:26:03;;;;;;;;;;;;;;;8.68;51.24;96742.09;6154047;23;19920;-90
2024/03/29 01:28:30;;;;;;;;;;;;;;;8.47;53.01;96733.09;6152784;23;19954;-92
2024/03/29 01:30:55;;;;;;;;;;;;;;;8.45;52.84;96740.19;6153455;23;19923;-90
2024/03/29 01:33:21;;;;;;;;;;;;;;;8.32;53.03;96746.28;6177889;23;19908;-91
2024/03/29 01:35:46;;;;;;;;;;;;;;;8.31;52.76;96738.31;6152478;23;19916;-90
2024/03/29 01:38:12;;;;;;;;;;;;;;;8.22;53.25;96741.78;6151850;23;19939;-91
2024/03/29 01:40:37;;;;;;;;;;;;;;;8.07;54.29;96741.69;6177176;23;20276;-91
2024/03/29 01:43:02;;;;;;;;;;;;;;;8.55;52.43;96732.28;6179356;23;19995;-90
2024/03/29 01:45:29;;;;;;;;;;;;;;;8.51;52.42;96734.00;6176096;23;19920;-90
2024/03/29 01:47:54;;;;;;;;;;;;;;;8.65;51.49;96728.78;6179462;23;19986;-89
2024/03/29 01:50:23;;;;;;;;;;;;;;;8.58;51.95;96729.63;6151579;23;20296;-90
2024/03/29 01:52:50;;;;;;;;;;;;;;;8.58;52.02;96716.34;6151452;23;19927;-89
2024/03/29 01:55:15;;;;;;;;;;;;;;;8.67;51.68;96706.63;6151673;23;19916;-90
2024/03/29 01:57:40;;;;;;;;;;;;;;;8.51;52.67;96717.19;6176261;23;19912;-90
2024/03/29 02:00:06;;;;;;;;;;;;;;;8.79;51.04;96716.41;6177651;23;19950;-90
2024/03/29 02:02:33;;;;;;;;;;;;;;;8.75;50.45;96714.63;6176233;23;20476;-91
2024/03/29 02:04:58;;;;;;;;;;;;;;;8.63;51.34;96698.66;6151616;23;19916;-90
2024/03/29 02:07:24;;;;;;;;;;;;;;;8.55;51.40;96697.72;6177424;23;20291;-90
2024/03/29 02:09:49;;;;;;;;;;;;;;;8.57;51.53;96706.56;6152246;23;19912;-90
2024/03/29 02:12:15;;;;;;;;;;;;;;;8.53;51.91;96711.00;6152220;23;19916;-91
2024/03/29 02:14:42;;;;;;;;;;;;;;;8.71;51.03;96703.09;6178039;23;19912;-91
2024/03/29 02:17:07;;;;;;;;;;;;;;;8.84;50.33;96698.72;6176822;23;19916;-90
2024/03/29 02:19:33;;;;;;;;;;;;;;;8.85;50.33;96696.94;6152509;23;20248;-90
2024/03/29 02:22:00;;;;;;;;;;;;;;;8.84;51.05;96685.41;6152684;23;19924;-92
2024/03/29 02:24:26;;;;;;;;;;;;;;;8.88;50.82;96697.84;6153237;23;20295;-93
2024/03/29 02:26:52;;;;;;;;;;;;;;;9.04;49.46;96704.06;6152260;23;19919;-93
2024/03/29 02:29:18;;;;;;;;;;;;;;;9.05;49.71;96692.53;6151649;23;19927;-92
2024/03/29 02:31:43;;;;;;;;;;;;;;;9.23;48.78;96691.69;6153575;23;20312;-91
2024/03/29 02:34:09;;;;;;;;;;;;;;;9.14;48.96;96684.59;6178058;23;19999;-93
2024/03/29 02:36:35;;;;;;;;;;;;;;;8.92;49.87;96693.44;6153032;23;20364;-91
2024/03/29 02:39:00;;;;;;;;;;;;;;;8.97;49.18;96697.88;6151694;23;20324;-91
2024/03/29 02:41:26;;;;;;;;;;;;;;;8.72;51.22;96698.69;6177045;23;20290;-90
2024/03/29 02:43:51;;;;;;;;;;;;;;;9.06;48.55;96701.44;6152446;23;19955;-91
2024/03/29 02:46:17;;;;;;;;;;;;;;;8.99;49.48;96706.72;6152109;23;20369;-91
2024/03/29 02:48:43;;;;;;;;;;;;;;;8.89;50.49;96688.97;6177340;23;20311;-92
2024/03/29 02:51:08;;;;;;;;;;;;;;;9.12;49.27;96682.81;6152887;23;19916;-91
2024/03/29 02:53:33;;;;;;;;;;;;;;;9.28;47.36;96687.28;6178693;23;20239;-91
2024/03/29 02:55:59;;;;;;;;;;;;;;;9.51;46.64;96679.31;6152278;23;19916;-91
2024/03/29 02:58:24;;;;;;;;;;;;;;;9.52;46.63;96679.31;6180718;23;19916;-90
2024/03/29 03:00:49;;;;;;;;;;;;;;;9.48;46.51;96687.28;6195983;23;19923;-91
2024/03/29 03:03:16;;;;;;;;;;;;;;;9.61;46.18;96696.16;6192479;23;19963;-90
2024/03/29 03:05:41;;;;;;;;;;;;;;;9.56;46.83;96693.50;6154644;23;19995;-92
2024/03/29 03:10:59;;;;;;;;;;;;;;;9.53;46.06;96690.84;6179482;23;19935;-92
2024/03/29 03:13:25;;;;;;;;;;;;;;;9.35;46.56;96693.50;6152541;23;19971;-91
2024/03/29 03:15:50;;;;;;;;;;;;;;;9.55;45.33;96686.41;6153000;23;19986;-93
2024/03/29 03:18:16;;;;;;;;;;;;;;;9.42;45.85;96696.16;6152326;23;20279;-90
2024/03/29 03:20:41;;;;;;;;;;;;;;;9.55;44.77;96693.53;6176770;23;19999;-89
2024/03/29 03:23:06;;;;;;;;;;;;;;;9.54;44.98;96692.63;6187941;23;20636;-91
2024/03/29 03:25:32;;;;;;;;;;;;;;;9.29;45.82;96690.81;6155679;23;19912;-92
2024/03/29 03:27:57;;;;;;;;;;;;;;;9.36;45.86;96695.28;6154434;23;19963;-91
2024/03/29 03:30:23;;;;;;;;;;;;;;;9.27;45.67;96701.47;6155078;23;19912;-93
2024/03/29 03:32:48;;;;;;;;;;;;;;;9.44;45.13;96689.09;6180436;23;19967;-92
2024/03/29 03:35:14;;;;;;;;;;;;;;;9.32;45.53;96686.41;6179203;23;20316;-90
2024/03/29 03:37:39;;;;;;;;;;;;;;;9.39;44.59;96690.84;6180880;23;19916;-92
2024/03/29 03:40:05;;;;;;;;;;;;;;;9.87;42.48;96683.75;6152397;23;20244;-92
2024/03/29 03:42:31;;;;;;;;;;;;;;;10.00;42.15;96690.81;6176206;23;19916;-90
2024/03/29 03:44:56;;;;;;;;;;;;;;;9.93;42.42;96697.06;6187672;23;19943;-91
2024/03/29 03:47:22;;;;;;;;;;;;;;;9.98;41.57;96703.25;6179854;23;19986;-93
2024/03/29 03:49:47;;;;;;;;;;;;;;;10.01;41.49;96713.00;6154865;23;19912;-93
2024/03/29 03:52:12;;;;;;;;;;;;;;;9.91;41.95;96717.44;6179971;23;19916;-92
2024/03/29 03:54:38;;;;;;;;;;;;;;;9.93;42.45;96720.13;6182205;23;19963;-90
2024/03/29 03:57:04;;;;;;;;;;;;;;;10.20;40.86;96724.53;6159558;23;20434;-93
2024/03/29 03:59:29;;;;;;;;;;;;;;;9.91;41.11;96730.78;6153229;23;19919;-92
2024/03/29 04:01:54;;;;;;;;;;;;;;;10.17;40.54;96736.09;6177580;23;19916;-93
2024/03/29 04:04:20;;;;;;;;;;;;;;;10.16;40.39;96763.63;6152553;23;19923;-91
2024/03/29 04:06:45;;;;;;;;;;;;;;;10.00;41.49;96770.72;6178285;23;19934;-91
2024/03/29 04:09:10;;;;;;;;;;;;;;;9.75;43.53;96763.63;6178843;23;19916;-92
2024/03/29 04:11:36;;;;;;;;;;;;;;;9.73;43.92;96762.75;6151562;23;19987;-90
2024/03/29 04:14:01;;;;;;;;;;;;;;;9.66;44.94;96775.16;6151934;23;19938;-91
2024/03/29 04:16:26;;;;;;;;;;;;;;;9.47;45.82;96770.69;6179556;23;20365;-92
2024/03/29 04:18:52;;;;;;;;;;;;;;;9.44;44.06;96760.06;6153918;23;19934;-91
2024/03/29 04:21:17;;;;;;;;;;;;;;;9.71;43.62;96721.91;6179453;23;19954;-92
2024/03/29 04:23:42;;;;;;;;;;;;;;;9.38;46.74;96736.06;6179400;23;19916;-90
2024/03/29 04:26:08;;;;;;;;;;;;;;;9.18;46.84;96736.91;6153225;23;19927;-91
2024/03/29 04:28:33;;;;;;;;;;;;;;;9.05;47.55;96731.56;6153700;23;20303;-91
2024/03/29 04:30:59;;;;;;;;;;;;;;;8.91;49.69;96710.25;6177420;23;19916;-92
2024/03/29 04:33:25;;;;;;;;;;;;;;;8.74;49.75;96694.25;6177916;23;19912;-92
2024/03/29 04:35:55;;;;;;;;;;;;;;;8.69;49.17;96701.31;6178501;23;19919;-92
2024/03/29 04:38:20;;;;;;;;;;;;;;;8.65;46.99;96681.81;6178340;23;19912;-91
2024/03/29 04:40:46;;;;;;;;;;;;;;;8.98;47.63;96688.13;6178842;23;19943;-90
2024/03/29 04:43:12;;;;;;;;;;;;;;;8.97;46.97;96708.50;6177016;23;19912;-91
2024/03/29 04:45:37;;;;;;;;;;;;;;;9.45;45.09;96698.84;6178219;23;19916;-92
2024/03/29 04:48:02;;;;;;;;;;;;;;;9.67;43.39;96693.50;6152242;23;20306;-90
2024/03/29 04:50:28;;;;;;;;;;;;;;;10.17;40.32;96668.59;6152859;23;19960;-91
2024/03/29 04:52:53;;;;;;;;;;;;;;;10.19;40.29;96685.44;6153599;23;20430;-93
2024/03/29 04:55:20;;;;;;;;;;;;;;;10.07;41.13;96706.81;6177965;23;19935;-93
2024/03/29 04:57:45;;;;;;;;;;;;;;;10.26;40.31;96737.91;6181783;23;19920;-93
2024/03/29 05:00:10;;;;;;;;;;;;;;;10.44;39.12;96752.94;6180549;23;20550;-92
2024/03/29 05:02:37;;;;;;;;;;;;;;;10.50;39.13;96791.16;6184690;23;19916;-93
2024/03/29 05:05:03;;;;;;;;;;;;;;;10.41;39.44;96776.97;6212522;23;19916;-92
2024/03/29 05:07:28;;;;;;;;;;;;;;;10.19;41.36;96760.06;6160587;23;20474;-92
2024/03/29 05:09:55;;;;;;;;;;;;;;;9.95;42.96;96745.88;6187566;23;19916;-94
2024/03/29 05:12:21;;;;;;;;;;;;;;;10.10;42.21;96730.75;6189503;23;19923;-92
2024/03/29 05:14:48;;;;;;;;;;;;;;;9.93;42.66;96723.69;6162044;23;19912;-93
2024/03/29 05:17:13;;;;;;;;;;;;;;;10.15;41.46;96703.22;6163267;23;19916;-92
2024/03/29 05:19:39;;;;;;;;;;;;;;;10.13;41.89;96674.81;6164885;23;19955;-91
2024/03/29 05:22:04;;;;;;;;;;;;;;;10.42;40.13;96657.00;6187353;23;19920;-91
2024/03/29 05:24:29;;;;;;;;;;;;;;;10.46;41.03;96647.22;6163166;23;19912;-90
2024/03/29 05:26:55;;;;;;;;;;;;;;;10.33;40.54;96646.34;6159260;23;19935;-90
2024/03/29 05:29:22;;;;;;;;;;;;;;;10.31;40.52;96656.16;6160737;23;20071;-91
2024/03/29 05:31:47;;;;;;;;;;;;;;;10.63;40.04;96645.34;6212645;23;20412;-92
2024/03/29 05:34:14;;;;;;;;;;;;;;;10.96;39.00;96648.72;6152909;23;19948;-90
2024/03/29 05:36:40;;;;;;;;;;;;;;;10.89;39.57;96650.56;6178598;23;19998;-91
2024/03/29 05:39:05;;;;;;;;;;;;;;;10.92;39.63;96653.22;6179890;23;19948;-91
2024/03/29 05:41:31;;;;;;;;;;;;;;;11.08;38.00;96662.00;6178324;23;19912;-92
2024/03/29 05:43:57;;;;;;;;;;;;;;;10.95;40.58;96668.31;6177460;23;19919;-90
2024/03/29 05:46:22;;;;;;;;;;;;;;;10.94;40.26;96667.41;6154212;23;19995;-93
2024/03/29 05:48:49;;;;;;;;;;;;;;;10.77;40.19;96674.59;6178951;23;19927;-91
2024/03/29 05:51:16;;;;;;;;;;;;;;;10.78;39.85;96671.06;6154963;23;20351;-92
2024/03/29 05:53:41;;;;;;;;;;;;;;;10.64;41.87;96665.81;6154952;23;19924;-93
2024/03/29 05:56:07;;;;;;;;;;;;;;;10.48;42.96;96664.94;6155984;23;19927;-92
2024/03/29 05:58:33;;;;;;;;;;;;;;;10.45;42.41;96662.31;6181189;23;20263;-94
2024/03/29 06:00:59;;;;;;;;;;;;;;;10.48;42.43;96661.41;6181079;23;20011;-93
2024/03/29 06:03:24;;;;;;;;;;;;;;;10.43;43.65;96666.75;6157751;23;19916;-92
2024/03/29 06:05:49;;;;;;;;;;;;;;;10.39;43.65;96675.66;6185710;23;20095;-91
2024/03/29 06:08:15;;;;;;;;;;;;;;;10.32;43.70;96686.34;6156018;23;19993;-92
2024/03/29 06:10:40;;;;;;;;;;;;;;;10.40;42.94;96679.22;6180765;23;19919;-94
2024/03/29 06:13:17;;;;;;;;;;;;;;;10.31;44.71;96681.91;6155061;23;19916;-93
2024/03/29 06:18:27;;;;;;;;;;;;;;;10.35;44.74;96681.91;6182015;23;20287;-93
2024/03/29 06:20:52;;;;;;;;;;;;;;;10.40;41.98;96690.78;6182140;23;20340;-91
2024/03/29 06:23:17;;;;;;;;;;;;;;;10.76;40.43;96684.41;6154553;23;20252;-93
2024/03/29 06:25:44;;;;;;;;;;;;;;;10.70;40.69;96694.22;6155972;23;20344;-92
2024/03/29 06:28:09;;;;;;;;;;;;;;;10.48;43.75;96696.94;6156344;23;19995;-92
2024/03/29 06:30:34;;;;;;;;;;;;;;;10.45;43.93;96696.97;6181256;23;19939;-91
2024/03/29 06:33:02;;;;;;;;;;;;;;;10.71;40.24;96688.88;6170758;23;19915;-91
2024/03/29 06:35:28;;;;;;;;;;;;;;;10.63;41.50;96693.34;6173734;23;20002;-91
2024/03/29 06:37:53;;;;;;;;;;;;;;;10.73;42.21;96684.44;6157226;23;20018;-92
2024/03/29 06:40:19;;;;;;;;;;;;;;;10.76;42.24;96680.84;6181004;23;19927;-93
2024/03/29 06:42:44;;;;;;;;;;;;;;;10.88;41.35;96688.81;6154996;23;19983;-89
2024/03/29 06:45:10;;;;;;;;;;;;;;;10.99;39.99;96692.28;6153921;23;19919;-92
2024/03/29 06:47:35;;;;;;;;;;;;;;;11.10;40.60;96705.56;6153536;23;19916;-92
2024/03/29 06:50:01;;;;;;;;;;;;;;;11.11;40.85;96695.78;6179841;23;19995;-91
2024/03/29 06:52:26;;;;;;;;;;;;;;;11.08;40.95;96703.81;6154157;23;19916;-91
2024/03/29 06:54:51;;;;;;;;;;;;;;;10.86;46.20;96706.59;6154403;23;19962;-92
2024/03/29 06:57:20;;;;;;;;;;;;;;;10.77;44.35;96706.63;6179583;23;19994;-90
2024/03/29 06:59:46;;;;;;;;;;;;;;;10.73;44.65;96710.19;6179148;23;20019;-92
2024/03/29 07:02:11;;;;;;;;;;;;;;;10.95;45.56;96694.97;6161337;23;20283;-92
2024/03/29 07:04:37;;;;;;;;;;;;;;;11.20;45.37;96701.94;6197925;23;20493;-93
2024/03/29 07:07:03;;;;;;;;;;;;;;;11.23;45.39;96693.94;6226101;23;19955;-92
2024/03/29 07:09:28;;;;;;;;;;;;;;;11.44;45.16;96700.00;6194700;23;19927;-94
2024/03/29 07:11:55;;;;;;;;;;;;;;;11.56;46.07;96684.81;6175902;23;19949;-92
2024/03/29 07:14:20;;;;;;;;;;;;;;;11.47;42.91;96700.00;6179687;23;19904;-92
2024/03/29 07:16:49;;;;;;;;;;;;;;;11.72;40.73;96690.91;6203095;23;19935;-90
2024/03/29 07:19:16;;;;;;;;;;;;;;;11.92;41.62;96684.53;6173366;23;19994;-92
2024/03/29 07:21:45;;;;;;;;;;;;;;;12.00;41.72;96685.34;6160104;23;19940;-94
2024/03/29 07:24:11;;;;;;;;;;;;;;;12.09;39.02;96681.72;6181802;23;19923;-94
2024/03/29 07:26:37;;;;;;;;;;;;;;;12.21;41.30;96682.47;6155719;23;19912;-92
2024/03/29 07:29:05;;;;;;;;;;;;;;;12.16;40.27;96673.59;6155937;23;20010;-92
2024/03/29 07:31:30;;;;;;;;;;;;;;;12.11;40.01;96672.75;6156555;23;19916;-94
2024/03/29 07:33:56;;;;;;;;;;;;;;;11.96;40.22;96676.47;6155222;23;19958;-94
2024/03/29 07:36:25;;;;;;;;;;;;;;;11.94;40.08;96674.72;6157024;23;20487;-92
2024/03/29 07:38:51;;;;;;;;;;;;;;;11.72;41.31;96700.69;6182844;23;20317;-94
2024/03/29 07:41:19;;;;;;;;;;;;;;;11.63;40.57;96700.78;6131740;23;20261;-94
2024/03/29 07:43:52;;;;;;;;;;;;;;;11.58;41.93;96716.81;6156837;23;19927;-92
2024/03/29 07:46:17;;;;;;;;;;;;;;;11.35;44.02;96718.75;6155734;23;19923;-92
2024/03/29 07:48:43;;;;;;;;;;;;;;;11.10;45.37;96726.91;6178738;23;19911;-93
2024/03/29 07:51:08;;;;;;;;;;;;;;;10.68;48.60;96736.00;6152570;23;20371;-91
2024/03/29 07:53:34;;;;;;;;;;;;;;;10.32;50.77;96748.53;6178757;23;19916;-92
2024/03/29 07:56:01;;;;;;;;;;;;;;;9.68;56.95;96770.75;6154689;23;19916;-91
2024/03/29 07:58:26;;;;;;;;;;;;;;;9.30;60.82;96770.66;6153769;23;19935;-90
2024/03/29 08:00:52;;;;;;;;;;;;;;;9.06;62.02;96759.97;6179387;23;20324;-92
2024/03/29 08:03:18;;;;;;;;;;;;;;;8.67;67.85;96764.22;6156627;23;19916;-92
2024/03/29 08:05:55;;;;;;;;;;;;;;;8.30;71.49;96781.69;6184514;23;19919;-91
2024/03/29 08:08:20;;;;;;;;;;;;;;;8.00;75.37;96814.22;6163022;23;19912;-94
2024/03/29 08:10:45;;;;;;;;;;;;;;;7.96;78.61;96822.19;6162019;23;19919;-95
2024/03/29 08:13:13;;;;;;;;;;;;;;;7.77;78.80;96841.47;6159396;23;19908;-94
2024/03/29 08:15:39;;;;;;;;;;;;;;;7.83;81.65;96833.56;6181816;23;19942;-93
2024/03/29 08:18:04;;;;;;;;;;;;;;;7.80;84.06;96835.28;6158027;23;20003;-92
2024/03/29 08:20:30;;;;;;;;;;;;;;;7.81;84.14;96851.25;6186073;23;19912;-92
2024/03/29 08:22:58;;;;;;;;;;;;;;;7.86;87.56;96862.81;6186118;23;19916;-92
2024/03/29 08:25:23;;;;;;;;;;;;;;;7.91;87.08;96858.44;6183611;23;19983;-94
2024/03/29 08:27:48;;;;;;;;;;;;;;;7.96;86.26;96856.69;6159800;23;19951;-94
2024/03/29 08:30:14;;;;;;;;;;;;;;;8.03;86.40;96864.72;6159707;23;20306;-93
2024/03/29 08:32:39;;;;;;;;;;;;;;;8.08;87.73;96870.94;6161008;23;20609;-95
2024/03/29 08:35:05;;;;;;;;;;;;;;;8.04;87.66;96870.03;6160464;23;19912;-91
2024/03/29 08:37:30;;;;;;;;;;;;;;;8.12;90.28;96884.28;6182948;23;20718;-96
2024/03/29 08:39:56;;;;;;;;;;;;;;;8.22;89.52;96890.56;6157714;23;19915;-93
2024/03/29 08:42:21;;;;;;;;;;;;;;;8.32;90.86;96891.53;6155244;23;19907;-88
2024/03/29 08:44:46;;;;;;;;;;;;;;;8.31;91.24;96895.06;6179674;23;20368;-95
2024/03/29 08:47:12;;;;;;;;;;;;;;;8.28;91.04;96917.16;6182594;23;19904;-93
2024/03/29 08:49:38;;;;;;;;;;;;;;;8.28;92.17;96917.16;6156213;23;19918;-92
2024/03/29 08:52:05;;;;;;;;;;;;;;;8.45;90.93;96930.66;6156528;23;19916;-90
2024/03/29 08:54:31;;;;;;;;;;;;;;;8.39;91.31;96936.81;6179169;23;20324;-93
2024/03/29 08:56:57;;;;;;;;;;;;;;;8.41;91.87;96928.84;6154942;23;19908;-92
2024/03/29 08:59:22;;;;;;;;;;;;;;;8.43;93.31;96920.00;6180449;23;19918;-89
2024/03/29 09:01:48;;;;;;;;;;;;;;;8.58;93.08;96915.69;6155564;23;19935;-90
2024/03/29 09:04:15;;;;;;;;;;;;;;;8.82;92.76;96905.25;6154661;23;19916;-92
2024/03/29 09:06:41;;;;;;;;;;;;;;;8.84;91.71;96914.09;6179119;23;20123;-92
2024/03/29 09:09:06;;;;;;;;;;;;;;;9.04;90.36;96923.97;6153710;23;20468;-92
2024/03/29 09:11:32;;;;;;;;;;;;;;;9.28;90.90;96920.56;6180528;23;19916;-91
2024/03/29 09:13:58;;;;;;;;;;;;;;;9.44;90.79;96912.66;6179588;23;19919;-91
2024/03/29 09:16:27;;;;;;;;;;;;;;;9.41;89.70;96914.41;6154526;23;19912;-90
2024/03/29 09:18:56;;;;;;;;;;;;;;;9.56;88.52;96905.59;6154172;23;19988;-90
2024/03/29 09:21:21;;;;;;;;;;;;;;;9.75;88.71;96884.34;6178740;23;19923;-92
2024/03/29 09:23:52;;;;;;;;;;;;;;;9.66;87.50;96879.00;6153425;23;19909;-90
2024/03/29 09:26:18;;;;;;;;;;;;;;;9.50;88.92;96867.44;6179746;23;19912;-91
2024/03/29 09:28:44;;;;;;;;;;;;;;;9.48;88.90;96854.97;6154705;23;19966;-90
2024/03/29 09:31:09;;;;;;;;;;;;;;;9.61;88.09;96866.56;6156462;23;20556;-91
2024/03/29 09:33:34;;;;;;;;;;;;;;;9.70;88.17;96862.16;6155008;23;19936;-92
2024/03/29 09:36:00;;;;;;;;;;;;;;;9.99;86.41;96863.97;6156366;23;20031;-92
2024/03/29 09:38:26;;;;;;;;;;;;;;;10.13;87.20;96869.34;6180595;23;19908;-91
2024/03/29 09:41:00;;;;;;;;;;;;;;;10.28;86.63;96880.03;6155360;23;20327;-91
2024/03/29 09:43:31;;;;;;;;;;;;;;;10.20;86.52;96893.31;6153862;23;19954;-91
2024/03/29 09:45:56;;;;;;;;;;;;;;;9.99;86.52;96894.16;6178896;23;19916;-90
2024/03/29 09:48:22;;;;;;;;;;;;;;;9.79;87.62;96895.91;6154029;23;19912;-90
2024/03/29 09:50:49;;;;;;;;;;;;;;;9.71;88.92;96892.34;6155810;23;19908;-90
2024/03/29 09:53:15;;;;;;;;;;;;;;;9.41;90.54;96898.44;6154519;23;19982;-90
2024/03/29 09:55:40;;;;;;;;;;;;;;;9.42;90.89;96887.78;6178883;23;20007;-91
2024/03/29 09:58:06;;;;;;;;;;;;;;;9.52;91.59;96855.00;6178404;23;19969;-89
2024/03/29 10:00:31;;;;;;;;;;;;;;;9.66;91.75;96841.72;6179592;23;19912;-90
2024/03/29 10:02:57;;;;;;;;;;;;;;;9.72;91.21;96830.19;6186053;23;19982;-89
2024/03/29 10:05:23;;;;;;;;;;;;;;;9.89;91.49;96808.94;6188156;23;19915;-90
2024/03/29 10:07:50;;;;;;;;;;;;;;;10.00;91.60;96807.13;6180437;23;19934;-90
2024/03/29 10:10:15;;;;;;;;;;;;;;;10.08;90.67;96813.38;6154494;23;19912;-89
2024/03/29 10:12:43;;;;;;;;;;;;;;;9.95;90.29;96823.13;6178236;23;20328;-91
2024/03/29 10:15:12;;;;;;;;;;;;;;;10.05;89.95;96815.13;6177409;23;20039;-91
2024/03/29 10:17:38;;;;;;;;;;;;;;;10.03;90.32;96807.16;6177786;23;20272;-91
2024/03/29 10:20:04;;;;;;;;;;;;;;;9.97;92.27;96789.41;6153975;23;20338;-89
2024/03/29 10:22:29;;;;;;;;;;;;;;;10.08;91.50;96847.13;6176966;23;19912;-89
2024/03/29 10:24:58;;;;;;;;;;;;;;;10.19;92.44;96808.03;6184786;23;19974;-90
2024/03/29 10:27:26;;;;;;;;;;;;;;;10.28;91.88;96822.28;6179415;23;19908;-91
2024/03/29 10:29:53;;;;;;;;;;;;;;;10.55;89.20;96816.94;6153811;23;19908;-90
2024/03/29 10:32:22;;;;;;;;;;;;;;;10.45;89.40;96816.94;6180389;23;19913;-90
2024/03/29 10:34:48;;;;;;;;;;;;;;;10.73;88.81;96816.88;6180715;23;20410;-90
2024/03/29 10:37:16;;;;;;;;;;;;;;;11.14;88.29;96818.53;6182530;23;19912;-88
2024/03/29 10:39:46;;;;;;;;;;;;;;;11.48;85.19;96808.59;6180602;23;19912;-89
2024/03/29 10:42:11;;;;;;;;;;;;;;;11.64;83.88;96812.06;6179823;23;19922;-89
2024/03/29 10:44:39;;;;;;;;;;;;;;;11.80;82.76;96806.63;6180848;23;19979;-90
2024/03/29 10:47:05;;;;;;;;;;;;;;;11.60;84.96;96791.63;6156481;23;19915;-88
2024/03/29 10:49:33;;;;;;;;;;;;;;;12.00;81.96;96814.53;6183080;23;19995;-89
2024/03/29 10:51:59;;;;;;;;;;;;;;;11.88;80.50;96808.38;6182975;23;19935;-90
2024/03/29 10:54:25;;;;;;;;;;;;;;;11.92;81.11;96803.00;6183721;23;19912;-89
2024/03/29 10:56:56;;;;;;;;;;;;;;;11.92;82.41;96813.69;6149640;23;19923;-91
2024/03/29 10:59:26;;;;;;;;;;;;;;;11.29;85.31;96813.13;6183116;23;19911;-90
2024/03/29 11:01:59;;;;;;;;;;;;;;;11.86;83.45;96815.53;6181428;23;19939;-91
2024/03/29 11:04:27;;;;;;;;;;;;;;;12.13;82.86;96815.34;6181217;23;19900;-89
2024/03/29 11:06:54;;;;;;;;;;;;;;;12.31;81.35;96799.16;6183338;23;19916;-90
2024/03/29 11:09:20;;;;;;;;;;;;;;;12.49;80.68;96803.41;6182873;23;19916;-91
2024/03/29 11:11:49;;;;;;;;;;;;;;;12.70;78.75;96801.44;6157437;23;19956;-91
2024/03/29 11:14:18;;;;;;;;;;;;;;;13.21;78.44;96801.75;6156131;23;20283;-89
2024/03/29 11:16:45;;;;;;;;;;;;;;;13.41;77.88;96798.84;6183034;23;19908;-90
2024/03/29 11:19:12;;;;;;;;;;;;;;;13.48;77.30;96803.22;6157414;23;20804;-91
2024/03/29 11:21:39;;;;;;;;;;;;;;;14.05;76.04;96793.47;6156109;23;19919;-92
2024/03/29 11:24:05;;;;;;;;;;;;;;;14.09;76.21;96784.47;6155230;23;19943;-90
2024/03/29 11:26:30;;;;;;;;;;;;;;;13.68;77.14;96777.03;6157104;23;19920;-91
2024/03/29 11:28:58;;;;;;;;;;;;;;;14.16;76.17;96758.41;6181119;23;19912;-91
2024/03/29 11:31:24;;;;;;;;;;;;;;;14.93;73.35;96755.25;6181397;23;20002;-92
2024/03/29 11:33:52;;;;;;;;;;;;;;;14.11;73.92;96755.81;6180716;23;20002;-91
2024/03/29 11:36:17;;;;;;;;;;;;;;;14.04;70.27;96758.63;6180811;23;19916;-89
2024/03/29 11:38:44;;;;;;;;;;;;;;;14.54;71.18;96756.91;6180656;23;19916;-90
2024/03/29 11:41:11;;;;;;;;;;;;;;;13.90;70.40;96766.00;6154832;23;19915;-92
2024/03/29 11:43:37;;;;;;;;;;;;;;;14.16;71.44;96765.59;6182789;23;19923;-91
2024/03/29 11:46:05;;;;;;;;;;;;;;;13.72;72.15;96767.16;6180361;23;19912;-90
2024/03/29 11:48:33;;;;;;;;;;;;;;;13.28;75.54;96753.50;6156910;23;20243;-91
2024/03/29 11:50:59;;;;;;;;;;;;;;;13.68;74.02;96762.75;6189341;23;19936;-94
2024/03/29 11:53:27;;;;;;;;;;;;;;;14.14;72.14;96762.06;6164452;23;20600;-94
2024/03/29 11:55:53;;;;;;;;;;;;;;;14.11;71.92;96747.75;6204819;23;19904;-90
2024/03/29 11:58:22;;;;;;;;;;;;;;;13.64;73.73;96761.91;6210386;23;19911;-92
2024/03/29 12:00:49;;;;;;;;;;;;;;;13.58;73.50;96745.94;6204944;23;19912;-92
2024/03/29 12:03:18;;;;;;;;;;;;;;;13.93;73.86;96758.78;6200221;23;19912;-92
2024/03/29 12:05:44;;;;;;;;;;;;;;;13.53;74.45;96762.06;6199678;23;19904;-90
2024/03/29 12:08:11;;;;;;;;;;;;;;;14.16;72.52;96779.00;6199163;23;19916;-92
2024/03/29 12:10:42;;;;;;;;;;;;;;;13.63;73.97;96783.38;6198701;23;19952;-92
2024/03/29 12:13:09;;;;;;;;;;;;;;;13.62;75.47;96797.69;6174187;23;19963;-91
2024/03/29 12:15:37;;;;;;;;;;;;;;;13.98;73.57;96804.28;6170983;23;19908;-92
2024/03/29 12:18:05;;;;;;;;;;;;;;;14.10;72.56;96814.84;6174215;23;19912;-93
2024/03/29 12:20:32;;;;;;;;;;;;;;;14.76;71.44;96808.41;6168271;23;19998;-92
2024/03/29 12:23:06;;;;;;;;;;;;;;;14.34;71.50;96814.44;6164997;23;19908;-91
2024/03/29 12:25:32;;;;;;;;;;;;;;;14.53;72.41;96816.84;6164003;23;20392;-92
2024/03/29 12:27:59;;;;;;;;;;;;;;;15.01;67.76;96809.72;6164380;23;19908;-92
2024/03/29 12:30:25;;;;;;;;;;;;;;;14.91;67.34;96800.06;6189883;23;19985;-93
2024/03/29 12:33:04;;;;;;;;;;;;;;;15.39;67.58;96791.94;6187925;23;19908;-93
2024/03/29 12:35:30;;;;;;;;;;;;;;;16.12;63.65;96776.84;6188713;23;19912;-92
2024/03/29 12:37:57;;;;;;;;;;;;;;;17.69;58.87;96782.47;6192845;23;19912;-94
2024/03/29 12:40:23;;;;;;;;;;;;;;;17.46;61.27;96774.19;6191892;23;19912;-95
2024/03/29 12:42:51;;;;;;;;;;;;;;;16.31;60.82;96779.09;6192066;23;19908;-93
2024/03/29 12:45:20;;;;;;;;;;;;;;;17.19;58.67;96773.16;6168125;23;19971;-91
2024/03/29 12:47:47;;;;;;;;;;;;;;;16.31;61.55;96779.09;6172118;23;19920;-93
2024/03/29 12:50:31;;;;;;;;;;;;;;;17.94;57.45;96762.88;6198836;23;19909;-94
2024/03/29 12:52:57;;;;;;;;;;;;;;;18.48;54.55;96759.28;6195837;23;19919;-94